createdAt,value
2023-04-19T06:22:53.813Z,9.3
2023-04-19T06:28:29.015Z,9.4
2023-04-19T06:34:24.696Z,9.5
2023-04-19T06:39:59.637Z,9.6
2023-04-19T06:45:35.849Z,9.7
2023-04-19T06:51:11.707Z,10.1
2023-04-19T06:56:55.648Z,10.3
2023-04-19T07:02:34.883Z,10.5
2023-04-19T07:08:15.412Z,10.7
2023-04-19T07:13:54.598Z,11
2023-04-19T07:19:33.722Z,11.3
2023-04-19T07:25:14.106Z,11.8
2023-04-19T07:30:52.836Z,12.2
2023-04-19T07:36:52.754Z,12.6
2023-04-19T07:42:28.505Z,12.9
2023-04-19T07:48:04.912Z,13.3
2023-04-19T07:53:42.175Z,13.5
2023-04-19T07:59:19.008Z,13.8
2023-04-19T08:04:54.917Z,14.1
2023-04-19T08:10:34.095Z,14.4
2023-04-19T08:23:18.462Z,15
2023-04-19T08:29:32.449Z,15.2
2023-04-19T08:35:07.925Z,15.4
2023-04-19T08:40:44.881Z,15.6
2023-04-19T08:46:22.166Z,15.9
2023-04-19T08:53:00.816Z,16.2
2023-04-19T08:59:17.860Z,16.5
2023-04-19T09:04:58.996Z,16.7
2023-04-19T09:10:38.704Z,16.9
2023-04-19T09:16:16.418Z,17.3
2023-04-19T09:21:55.472Z,17.5
2023-04-19T09:27:32.066Z,17.7
2023-04-19T09:33:08.479Z,17.9
2023-04-19T09:38:45.672Z,18.1
2023-04-19T09:51:07.597Z,18.7
2023-04-19T09:56:51.221Z,18.9
2023-04-19T10:02:35.860Z,19.3
2023-04-19T10:08:23.416Z,19.4
2023-04-19T10:14:00.254Z,19.5
2023-04-19T10:19:36.188Z,19.9
2023-04-19T10:25:11.364Z,20
2023-04-19T10:30:57.906Z,20
2023-04-19T10:36:47.229Z,20.3
2023-04-19T10:42:23.219Z,20.7
2023-04-19T10:48:00.480Z,20.7
2023-04-19T10:53:39.361Z,21
2023-04-19T10:59:15.553Z,21.3
2023-04-19T11:04:53.115Z,21.3
2023-04-19T11:10:29.339Z,21.4
2023-04-19T11:16:05.771Z,21.4
2023-04-19T11:21:44.884Z,21.7
2023-04-19T11:27:20.949Z,21.9
2023-04-19T11:32:56.559Z,21.8
2023-04-19T11:39:00.099Z,22.2
2023-04-19T11:44:35.570Z,22.4
2023-04-19T11:50:11.802Z,22.6
2023-04-19T11:55:47.865Z,22.6
2023-04-19T12:01:24.150Z,22.6
2023-04-19T12:07:01.465Z,22.9
2023-04-19T12:12:37.461Z,23.4
2023-04-19T12:18:13.074Z,23.5
2023-04-19T12:23:49.457Z,23.6
2023-04-19T12:29:26.440Z,23.9
2023-04-19T12:35:02.461Z,24
2023-04-19T12:40:38.482Z,24.8
2023-04-19T12:46:14.687Z,25.2
2023-04-19T12:51:50.606Z,25.3
2023-04-19T12:57:31.600Z,25.7
2023-04-19T13:03:07.502Z,26.4
2023-04-19T13:08:47.867Z,27
2023-04-19T13:14:26.313Z,28.1
2023-04-19T13:20:27.831Z,30.1
2023-04-19T13:26:01.807Z,34.6
2023-04-19T13:31:38.173Z,40.8
2023-04-19T13:37:14.354Z,43.3
2023-04-19T13:42:50.442Z,45.4
2023-04-19T13:48:27.107Z,45.6
2023-04-19T13:54:03.880Z,43.2
2023-04-19T13:59:39.788Z,40.6
2023-04-19T14:05:18.134Z,33.5
2023-04-19T14:10:54.162Z,32
2023-04-19T14:16:29.693Z,31.2
2023-04-19T14:22:05.632Z,30.9
2023-04-19T14:27:43.074Z,30.9
2023-04-19T14:33:19.142Z,30.5
2023-04-19T14:38:55.041Z,30.8
2023-04-19T14:44:31.478Z,30.7
2023-04-19T14:50:11.908Z,31
2023-04-19T14:55:47.134Z,31.3
2023-04-19T15:01:23.980Z,31.1
2023-04-19T15:06:59.767Z,31
2023-04-19T15:12:35.346Z,31.5
2023-04-19T15:18:11.783Z,31.8
2023-04-19T15:23:48.649Z,31.9
2023-04-19T15:29:23.670Z,30.8
2023-04-19T15:34:58.822Z,30.4
2023-04-19T15:40:35.975Z,30.2
2023-04-19T15:46:11.661Z,29
2023-04-19T15:51:48.027Z,28.1
2023-04-19T15:57:23.247Z,28
2023-04-19T16:02:58.849Z,30
2023-04-19T16:08:36.697Z,32.8
2023-04-19T16:14:12.473Z,33.4
2023-04-19T16:19:48.044Z,31.6
2023-04-19T16:25:23.416Z,30
2023-04-19T16:30:58.884Z,29.5
2023-04-19T16:36:34.395Z,31
2023-04-19T16:42:11.658Z,34.5
2023-04-19T16:47:50.070Z,33.5
2023-04-19T16:53:26.357Z,32.4
2023-04-19T16:59:02.625Z,29.7
2023-04-19T17:04:38.209Z,27.7
2023-04-19T17:10:15.962Z,26.3
2023-04-19T17:15:51.778Z,25.4
2023-04-19T17:21:49.688Z,24.8
2023-04-19T17:27:22.935Z,24.5
2023-04-19T17:32:58.225Z,24.2
2023-04-19T17:38:34.669Z,23.9
2023-04-19T17:44:10.837Z,23.7
2023-04-19T17:49:48.093Z,23.2
2023-04-19T17:55:23.674Z,23.1
2023-04-19T18:00:59.372Z,23
2023-04-19T18:06:34.919Z,22.8
2023-04-19T18:12:10.004Z,21.9
2023-04-19T18:18:03.323Z,21.6
2023-04-19T18:24:28.075Z,21.3
2023-04-19T18:30:09.176Z,21
2023-04-19T18:35:49.244Z,20.7
2023-04-19T18:41:24.636Z,20.5
2023-04-19T18:46:59.993Z,20.1
2023-04-19T18:52:36.428Z,19.7
2023-04-19T18:58:12.409Z,19.6
2023-04-19T19:04:09.330Z,19.4
2023-04-19T19:11:07.031Z,19.2
2023-04-19T19:17:32.500Z,19.1
2023-04-19T19:23:08.322Z,19
2023-04-19T19:28:47.294Z,18.8
2023-04-19T19:35:03.262Z,18.6
2023-04-19T19:48:13.854Z,18.4
2023-04-19T19:54:17.021Z,18.1
2023-04-19T19:59:56.720Z,18
2023-04-19T20:07:15.511Z,18
2023-04-19T20:13:43.374Z,17.6
2023-04-19T20:19:28.840Z,17.4
2023-04-19T20:25:04.162Z,17.1
2023-04-19T20:30:39.800Z,16.9
2023-04-19T20:36:25.380Z,16.7
2023-04-19T20:42:03.466Z,16.3
2023-04-19T20:47:40.568Z,16.4
2023-04-19T20:53:20.547Z,16.4
2023-04-19T20:58:56.937Z,16.3
2023-04-19T21:04:43.817Z,16.1
2023-04-19T21:10:50.347Z,15.8
2023-04-19T21:16:25.713Z,15.5
2023-04-19T21:22:03.593Z,15.5
2023-04-19T21:27:41.958Z,15.4
2023-04-19T21:33:18.336Z,15
2023-04-19T21:38:53.731Z,14.8
